createdAt,value
2024-05-09T00:00:22.266Z,135.000000
2024-05-09T00:05:16.152Z,337.500000
2024-05-09T00:10:25.112Z,22.500000
2024-05-09T00:15:16.035Z,22.500000
2024-05-09T00:20:20.647Z,90.000000
2024-05-09T00:25:16.223Z,22.500000
2024-05-09T00:30:24.234Z,90.000000
2024-05-09T00:35:16.166Z,22.500000
2024-05-09T00:40:26.431Z,22.500000
2024-05-09T00:45:16.061Z,67.500000
2024-05-09T00:50:22.710Z,90.000000
2024-05-09T00:55:16.243Z,22.500000
2024-05-09T01:00:26.106Z,45.000000
2024-05-09T01:05:16.490Z,45.000000
2024-05-09T01:10:21.233Z,315.000000
2024-05-09T01:15:16.194Z,292.500000
2024-05-09T01:20:20.322Z,225.000000
2024-05-09T01:25:16.256Z,315.000000
2024-05-09T01:30:21.012Z,67.500000
2024-05-09T01:40:21.989Z,112.500000
2024-05-09T01:45:16.394Z,45.000000
2024-05-09T01:50:16.699Z,45.000000
2024-05-09T01:55:16.275Z,22.500000
2024-05-09T02:00:22.258Z,67.500000
2024-05-09T02:05:16.568Z,22.500000
2024-05-09T02:10:23.256Z,45.000000
2024-05-09T02:15:16.326Z,22.500000
2024-05-09T02:20:22.737Z,315.000000
2024-05-09T02:25:16.267Z,22.500000
2024-05-09T02:30:22.904Z,22.500000
2024-05-09T02:35:16.629Z,22.500000
2024-05-09T02:40:21.839Z,22.500000
2024-05-09T02:45:16.288Z,337.500000
2024-05-09T02:50:23.107Z,67.500000
2024-05-09T02:55:16.296Z,67.500000
2024-05-09T03:00:22.760Z,67.500000
2024-05-09T03:05:16.592Z,112.500000
2024-05-09T03:10:22.344Z,67.500000
2024-05-09T03:15:16.323Z,135.000000
2024-05-09T03:20:23.362Z,135.000000
2024-05-09T03:25:16.336Z,135.000000
2024-05-09T03:30:28.870Z,135.000000
2024-05-09T03:35:16.532Z,135.000000
2024-05-09T03:40:23.347Z,135.000000
2024-05-09T03:45:16.386Z,135.000000
2024-05-09T03:50:22.762Z,157.500000
2024-05-09T03:55:16.590Z,157.500000
2024-05-09T04:00:22.132Z,157.500000
2024-05-09T04:05:16.054Z,157.500000
2024-05-09T04:10:24.037Z,157.500000
2024-05-09T04:15:15.992Z,135.000000
2024-05-09T04:20:28.570Z,157.500000
2024-05-09T04:25:16.012Z,135.000000
2024-05-09T04:30:25.416Z,135.000000
2024-05-09T04:35:16.246Z,135.000000
2024-05-09T04:40:24.276Z,180.000000
2024-05-09T04:50:24.660Z,67.500000
2024-05-09T04:55:16.101Z,157.500000
2024-05-09T05:25:16.085Z,45.000000
2024-05-09T05:55:16.306Z,135.000000
2024-05-09T06:35:16.173Z,135.000000
2024-05-09T07:00:23.055Z,45.000000
2024-05-09T07:05:16.307Z,157.500000
2024-05-09T07:10:22.110Z,157.500000
2024-05-09T07:15:16.221Z,180.000000
2024-05-09T08:35:16.356Z,225.000000
2024-05-09T08:40:23.930Z,225.000000
2024-05-09T08:45:16.398Z,225.000000
2024-05-09T08:50:28.666Z,315.000000
2024-05-09T08:55:16.471Z,225.000000
2024-05-09T09:00:33.472Z,292.500000
2024-05-09T09:05:16.632Z,292.500000
2024-05-09T09:10:24.941Z,270.000000
2024-05-09T09:15:16.432Z,315.000000
2024-05-09T09:20:23.182Z,292.500000
2024-05-09T09:25:16.513Z,292.500000
2024-05-09T09:30:30.790Z,292.500000
2024-05-09T09:35:16.467Z,315.000000
2024-05-09T09:40:18.370Z,292.500000
2024-05-09T09:45:16.612Z,292.500000
2024-05-09T09:50:20.665Z,315.000000
2024-05-09T09:55:16.667Z,315.000000
2024-05-09T10:00:24.008Z,315.000000
2024-05-09T10:05:16.705Z,292.500000
2024-05-09T10:10:22.937Z,292.500000
2024-05-09T10:15:16.533Z,292.500000
2024-05-09T10:20:21.912Z,315.000000
2024-05-09T10:25:16.705Z,292.500000
2024-05-09T10:30:25.423Z,315.000000
2024-05-09T10:35:16.636Z,292.500000
2024-05-09T10:40:23.434Z,292.500000
2024-05-09T10:45:16.852Z,292.500000
2024-05-09T10:50:22.628Z,225.000000
2024-05-09T10:55:16.892Z,292.500000
2024-05-09T11:00:27.027Z,292.500000
2024-05-09T11:05:16.960Z,315.000000
2024-05-09T11:10:24.396Z,292.500000
2024-05-09T11:15:16.689Z,225.000000
2024-05-09T11:20:22.993Z,270.000000
2024-05-09T11:25:16.859Z,315.000000
2024-05-09T11:30:24.180Z,270.000000
2024-05-09T11:35:16.819Z,292.500000
2024-05-09T11:40:24.718Z,225.000000
2024-05-09T11:45:16.921Z,270.000000
2024-05-09T12:00:24.614Z,315.000000
2024-05-09T12:05:19.142Z,225.000000
2024-05-09T12:10:22.142Z,292.500000
2024-05-09T12:15:17.016Z,225.000000
2024-05-09T12:20:25.036Z,270.000000
2024-05-09T12:25:17.117Z,292.500000
2024-05-09T12:30:24.702Z,292.500000
2024-05-09T12:35:16.952Z,270.000000
2024-05-09T12:40:23.206Z,292.500000
2024-05-09T12:45:17.003Z,292.500000
2024-05-09T12:50:25.077Z,292.500000
2024-05-09T12:55:17.014Z,292.500000
2024-05-09T13:00:23.909Z,270.000000
2024-05-09T13:05:17.242Z,270.000000
2024-05-09T13:10:25.520Z,270.000000
2024-05-09T13:15:16.909Z,315.000000
2024-05-09T13:20:25.739Z,292.500000
2024-05-09T13:25:16.965Z,292.500000
2024-05-09T13:30:28.664Z,292.500000
2024-05-09T13:35:17.144Z,292.500000
2024-05-09T13:40:26.703Z,292.500000
2024-05-09T13:45:16.912Z,270.000000
2024-05-09T13:50:27.772Z,292.500000
2024-05-09T13:55:16.975Z,225.000000
2024-05-09T14:00:27.431Z,292.500000
2024-05-09T14:05:17.423Z,292.500000
2024-05-09T14:10:23.285Z,292.500000
2024-05-09T14:15:17.200Z,292.500000
2024-05-09T14:20:27.965Z,270.000000
2024-05-09T14:25:17.318Z,292.500000
2024-05-09T14:30:22.973Z,292.500000
2024-05-09T14:35:17.259Z,292.500000
2024-05-09T14:40:30.665Z,292.500000
2024-05-09T14:45:17.075Z,315.000000
2024-05-09T14:50:24.013Z,270.000000
2024-05-09T14:55:17.147Z,270.000000
2024-05-09T15:00:25.458Z,292.500000
2024-05-09T15:05:17.178Z,292.500000
2024-05-09T15:10:26.255Z,292.500000
2024-05-09T15:15:17.215Z,292.500000
2024-05-09T15:20:20.712Z,315.000000
2024-05-09T15:25:17.212Z,292.500000
2024-05-09T15:30:20.846Z,292.500000
2024-05-09T15:35:17.273Z,315.000000
2024-05-09T15:40:26.242Z,315.000000
2024-05-09T15:45:17.144Z,292.500000
2024-05-09T15:50:23.453Z,315.000000
2024-05-09T15:55:17.353Z,292.500000
2024-05-09T16:00:24.985Z,225.000000
2024-05-09T16:05:17.292Z,225.000000
2024-05-09T16:10:22.999Z,292.500000
2024-05-09T16:15:17.184Z,315.000000
2024-05-09T16:20:28.999Z,315.000000
2024-05-09T16:25:17.420Z,292.500000
2024-05-09T16:30:24.771Z,292.500000
2024-05-09T16:35:17.177Z,292.500000
2024-05-09T16:40:25.502Z,315.000000
2024-05-09T16:45:15.244Z,292.500000
2024-05-09T16:50:19.255Z,292.500000
2024-05-09T16:55:15.422Z,270.000000
2024-05-09T17:00:22.680Z,270.000000
2024-05-09T17:05:15.463Z,22.500000
2024-05-09T17:10:22.114Z,315.000000
2024-05-09T17:15:15.290Z,315.000000
2024-05-09T17:20:25.625Z,315.000000
2024-05-09T17:25:15.444Z,315.000000
2024-05-09T17:30:24.048Z,315.000000
2024-05-09T17:35:15.577Z,315.000000
2024-05-09T17:40:17.337Z,292.500000
2024-05-09T17:45:15.509Z,315.000000
2024-05-09T17:50:23.740Z,337.500000
2024-05-09T17:55:15.539Z,22.500000
2024-05-09T18:00:24.611Z,337.500000
2024-05-09T18:05:15.733Z,292.500000
2024-05-09T18:10:21.980Z,315.000000
2024-05-09T18:15:15.631Z,292.500000
2024-05-09T18:20:23.566Z,337.500000
2024-05-09T18:25:15.572Z,292.500000
2024-05-09T18:30:23.847Z,45.000000
2024-05-09T18:35:15.562Z,45.000000
2024-05-09T18:40:21.163Z,45.000000
2024-05-09T18:45:15.648Z,22.500000
2024-05-09T18:50:24.594Z,90.000000
2024-05-09T18:55:15.543Z,45.000000
2024-05-09T19:00:26.789Z,45.000000
2024-05-09T19:05:15.757Z,45.000000
2024-05-09T19:10:22.494Z,45.000000
2024-05-09T19:15:15.527Z,45.000000
2024-05-09T19:20:24.908Z,45.000000
2024-05-09T19:25:15.557Z,45.000000
2024-05-09T19:30:25.067Z,45.000000
2024-05-09T19:35:15.753Z,112.500000
2024-05-09T19:40:24.530Z,135.000000
2024-05-09T19:45:15.667Z,135.000000
2024-05-09T19:50:22.475Z,67.500000
2024-05-09T19:55:15.861Z,45.000000
2024-05-09T20:00:21.960Z,67.500000
2024-05-09T20:05:15.804Z,67.500000
2024-05-09T20:10:23.318Z,67.500000
2024-05-09T20:15:15.700Z,112.500000
2024-05-09T20:20:27.301Z,112.500000
2024-05-09T20:25:16.024Z,135.000000
2024-05-09T20:30:24.730Z,67.500000
2024-05-09T20:35:15.702Z,67.500000
2024-05-09T20:40:25.258Z,67.500000
2024-05-09T20:45:15.710Z,112.500000
2024-05-09T20:50:23.843Z,112.500000
2024-05-09T20:55:15.889Z,67.500000
2024-05-09T21:00:19.166Z,112.500000
2024-05-09T21:05:15.824Z,112.500000
2024-05-09T21:10:22.279Z,112.500000
2024-05-09T21:15:15.951Z,112.500000
2024-05-09T21:20:20.305Z,90.000000
2024-05-09T21:25:15.734Z,45.000000
2024-05-09T21:30:22.699Z,67.500000
2024-05-09T21:35:15.789Z,90.000000
2024-05-09T21:40:26.619Z,112.500000
2024-05-09T21:45:15.724Z,90.000000
2024-05-09T21:50:22.718Z,112.500000
2024-05-09T21:55:15.990Z,112.500000
2024-05-09T22:00:28.211Z,112.500000
2024-05-09T22:05:16.006Z,90.000000
2024-05-09T22:10:22.638Z,67.500000
2024-05-09T22:15:15.787Z,112.500000
2024-05-09T22:20:22.266Z,90.000000
2024-05-09T22:25:16.044Z,90.000000
2024-05-09T22:30:23.759Z,112.500000
2024-05-09T22:35:15.817Z,112.500000
2024-05-09T22:40:24.232Z,112.500000
2024-05-09T22:45:15.873Z,90.000000
2024-05-09T22:50:22.750Z,90.000000
2024-05-09T22:55:15.910Z,90.000000
2024-05-09T23:00:18.740Z,67.500000
2024-05-09T23:05:16.159Z,112.500000
2024-05-09T23:10:21.457Z,45.000000
2024-05-09T23:15:15.893Z,112.500000
2024-05-09T23:20:22.077Z,112.500000
2024-05-09T23:25:18.218Z,90.000000
2024-05-09T23:30:28.254Z,112.500000
2024-05-09T23:35:16.100Z,45.000000
2024-05-09T23:40:19.004Z,45.000000
2024-05-09T23:45:15.951Z,67.500000
2024-05-09T23:50:20.683Z,45.000000
2024-05-09T23:55:16.458Z,67.500000
